Time;durP1;ratioP1;P1;durP2;ratioP2;P2;SDS_P1;SDS_P2;PMS_P1;PMS_P2;Temp;Humidity;BMP_temperature;BMP_pressure;BME280_temperature;BME280_humidity;BME280_pressure;Samples;Min_cycle;Max_cycle;Signal;HPM_P1;HPM_P2
2022/06/02 00:01:49;;;;;;;10.02;9.02;;;;;;;;;;5057614;28;20100;-73
2022/06/02 00:04:30;;;;;;;12.63;8.35;;;;;;;;;;5069960;28;20485;-72
2022/06/02 00:06:59;;;;;;;11.32;8.98;;;;;;;;;;5070535;28;20444;-73
2022/06/02 00:09:44;;;;;;;10.25;9.23;;;;;;;;;;5056049;28;20045;-72
2022/06/02 00:12:23;;;;;;;11.90;9.02;;;;;;;;;;5060006;28;20029;-73
2022/06/02 00:15:00;;;;;;;13.18;10.48;;;;;;;;;;5069154;28;20055;-73
2022/06/02 00:17:26;;;;;;;10.43;9.32;;;;;;;;;;5072044;28;20052;-73
2022/06/02 00:20:02;;;;;;;12.82;9.57;;;;;;;;;;5045144;28;20025;-73
2022/06/02 00:22:47;;;;;;;16.45;11.73;;;;;;;;;;5079684;28;20032;-73
2022/06/02 00:25:18;;;;;;;15.18;11.05;;;;;;;;;;5051064;28;20464;-72
2022/06/02 00:27:47;;;;;;;11.93;9.23;;;;;;;;;;5051817;28;20104;-72
2022/06/02 00:30:14;;;;;;;13.00;10.45;;;;;;;;;;5064629;28;20087;-72
2022/06/02 00:32:43;;;;;;;12.82;10.13;;;;;;;;;;5080606;28;20137;-73
2022/06/02 00:35:28;;;;;;;11.50;9.93;;;;;;;;;;5063840;28;20052;-73
2022/06/02 00:38:03;;;;;;;11.77;9.27;;;;;;;;;;5056785;28;20087;-72
2022/06/02 00:40:30;;;;;;;11.77;9.35;;;;;;;;;;5065795;28;20039;-72
2022/06/02 00:43:13;;;;;;;13.10;8.82;;;;;;;;;;5068243;28;20158;-72
2022/06/02 00:45:44;;;;;;;9.52;8.18;;;;;;;;;;5067926;28;20106;-72
2022/06/02 00:48:16;;;;;;;9.77;8.70;;;;;;;;;;5044333;28;20047;-72
2022/06/02 00:50:45;;;;;;;9.15;8.20;;;;;;;;;;5057624;28;20146;-72
2022/06/02 00:53:11;;;;;;;11.20;8.93;;;;;;;;;;5065338;28;20030;-72
2022/06/02 00:59:06;;;;;;;9.13;8.23;;;;;;;;;;5039601;28;20490;-72
2022/06/02 01:01:34;;;;;;;9.30;8.32;;;;;;;;;;5064036;28;20099;-72
2022/06/02 01:04:01;;;;;;;8.90;8.00;;;;;;;;;;5050677;28;20032;-72
2022/06/02 01:06:30;;;;;;;9.82;8.80;;;;;;;;;;5068711;28;20047;-73
2022/06/02 01:08:56;;;;;;;10.35;8.95;;;;;;;;;;5068834;28;20144;-73
2022/06/02 01:11:32;;;;;;;9.60;8.70;;;;;;;;;;5058062;28;20029;-73
2022/06/02 01:14:17;;;;;;;9.68;8.77;;;;;;;;;;5070180;28;20453;-73
2022/06/02 01:16:51;;;;;;;11.15;7.85;;;;;;;;;;5069011;28;20029;-73
2022/06/02 01:19:29;;;;;;;9.05;8.15;;;;;;;;;;5040769;28;20103;-73
2022/06/02 01:22:01;;;;;;;9.73;8.65;;;;;;;;;;5080270;28;20125;-73
2022/06/02 01:24:40;;;;;;;10.27;8.40;;;;;;;;;;5055500;28;20436;-73
2022/06/02 01:27:32;;;;;;;9.63;8.63;;;;;;;;;;5056463;28;20040;-73
2022/06/02 01:30:20;;;;;;;10.65;9.40;;;;;;;;;;5040305;28;20048;-73
2022/06/02 01:33:06;;;;;;;13.07;9.40;;;;;;;;;;5066287;28;20033;-73
2022/06/02 01:35:47;;;;;;;9.35;8.45;;;;;;;;;;5069622;28;20029;-73
2022/06/02 01:38:17;;;;;;;10.15;8.90;;;;;;;;;;5038126;28;20136;-73
2022/06/02 01:40:51;;;;;;;10.43;8.75;;;;;;;;;;5042118;28;20048;-73
2022/06/02 01:43:23;;;;;;;10.05;8.82;;;;;;;;;;5059400;28;20050;-73
2022/06/02 01:45:52;;;;;;;8.82;7.88;;;;;;;;;;5055844;28;20033;-73
2022/06/02 01:48:18;;;;;;;8.30;7.50;;;;;;;;;;5065168;28;20101;-71
2022/06/02 01:51:02;;;;;;;9.30;8.27;;;;;;;;;;5066815;28;20126;-71
2022/06/02 01:53:46;;;;;;;11.02;8.75;;;;;;;;;;5061303;28;20094;-72
2022/06/02 01:56:14;;;;;;;11.93;8.60;;;;;;;;;;5066833;28;20032;-71
2022/06/02 01:58:56;;;;;;;11.15;8.88;;;;;;;;;;5067876;28;20036;-71
2022/06/02 02:01:41;;;;;;;9.60;8.45;;;;;;;;;;5072767;28;20455;-71
2022/06/02 02:04:09;;;;;;;9.23;8.30;;;;;;;;;;5079425;28;20446;-72
2022/06/02 02:06:51;;;;;;;10.73;8.90;;;;;;;;;;5053160;28;20365;-72
2022/06/02 02:09:46;;;;;;;9.32;8.43;;;;;;;;;;5061640;28;20044;-72
2022/06/02 02:12:19;;;;;;;9.60;8.65;;;;;;;;;;5002134;28;20077;-71
2022/06/02 02:14:52;;;;;;;9.82;8.82;;;;;;;;;;5068639;28;20031;-72
2022/06/02 02:17:17;;;;;;;;;;;;;;;;;;5061528;28;20063;-72
2022/06/02 02:19:52;;;;;;;10.75;8.85;;;;;;;;;;5068473;28;20223;-74
2022/06/02 02:22:30;;;;;;;8.88;7.97;;;;;;;;;;5087415;28;20103;-71
2022/06/02 02:25:17;;;;;;;9.18;8.27;;;;;;;;;;5066644;28;20036;-71
2022/06/02 02:30:44;;;;;;;8.75;7.85;;;;;;;;;;5059591;28;20029;-72
2022/06/02 02:33:19;;;;;;;9.10;8.20;;;;;;;;;;5072832;28;20041;-72
2022/06/02 02:36:04;;;;;;;9.95;8.95;;;;;;;;;;5072071;28;20380;-72
2022/06/02 02:38:41;;;;;;;9.55;8.55;;;;;;;;;;5064039;28;20103;-72
2022/06/02 02:41:10;;;;;;;8.48;7.65;;;;;;;;;;5068126;28;20024;-72
2022/06/02 02:43:53;;;;;;;8.73;7.78;;;;;;;;;;5069266;28;20111;-72
2022/06/02 02:46:22;;;;;;;9.75;8.05;;;;;;;;;;5056406;28;20029;-72
2022/06/02 02:49:03;;;;;;;10.95;7.50;;;;;;;;;;5063736;28;20453;-72
2022/06/02 02:51:51;;;;;;;8.65;7.85;;;;;;;;;;5062741;28;20025;-72
2022/06/02 02:54:27;;;;;;;9.93;8.55;;;7.90;99.90;;;;;;5063815;28;20029;-72
2022/06/02 02:57:15;;;;;;;13.57;8.35;;;;;;;;;;5064211;28;20020;-72
2022/06/02 02:59:41;;;;;;;9.07;8.18;;;;;;;;;;5059888;28;20033;-72
2022/06/02 03:02:11;;;;;;;10.05;7.57;;;;;;;;;;5073128;28;20032;-73
2022/06/02 03:04:56;;;;;;;8.90;7.63;;;;;;;;;;5062612;28;20036;-72
2022/06/02 03:07:22;;;;;;;8.93;8.02;;;;;;;;;;5073301;28;20040;-73
2022/06/02 03:10:15;;;;;;;9.73;7.57;;;;;;;;;;5050034;28;20123;-73
2022/06/02 03:13:00;;;;;;;9.50;8.52;;;;;;;;;;5056410;28;20056;-72
2022/06/02 03:15:36;;;;;;;12.23;8.73;;;;;;;;;;5069945;28;20051;-72
2022/06/02 03:18:27;;;;;;;10.65;9.07;;;;;;;;;;5072219;28;20039;-72
2022/06/02 03:21:14;;;;;;;11.30;8.25;;;7.50;99.90;;;;;;5087018;28;20032;-73
2022/06/02 03:23:51;;;;;;;11.93;9.05;;;;;;;;;;5066446;28;20086;-72
2022/06/02 03:26:36;;;;;;;9.40;8.30;;;7.70;99.90;;;;;;5053242;28;20041;-72
2022/06/02 03:29:14;;;;;;;10.48;8.95;;;;;;;;;;5057966;28;20091;-72
2022/06/02 03:31:53;;;;;;;11.88;8.20;;;;;;;;;;5070999;28;20389;-72
2022/06/02 03:34:25;;;;;;;11.68;8.13;;;;;;;;;;5064809;28;20499;-72
2022/06/02 03:36:57;;;;;;;9.68;7.55;;;;;;;;;;5065083;28;20060;-72
2022/06/02 03:39:42;;;;;;;9.00;7.85;;;;;;;;;;5068949;28;20028;-72
2022/06/02 03:42:20;;;;;;;8.73;7.80;;;;;;;;;;5071500;28;20032;-72
2022/06/02 03:44:52;;;;;;;11.98;7.63;;;;;;;;;;5065663;28;20032;-72
2022/06/02 03:47:21;;;;;;;9.80;8.80;;;;;;;;;;5063691;28;20051;-72
2022/06/02 03:49:47;;;;;;;10.20;7.93;;;;;;;;;;5068532;28;20047;-72
2022/06/02 03:52:16;;;;;;;7.85;7.07;;;;;;;;;;5057708;28;20021;-72
2022/06/02 03:54:43;;;;;;;9.48;7.45;;;;;;;;;;5062856;28;20029;-72
2022/06/02 03:57:24;;;;;;;8.15;6.97;;;;;;;;;;5063315;28;20032;-72
2022/06/02 03:59:57;;;;;;;11.13;7.70;;;;;;;;;;5052612;28;20040;-72
2022/06/02 04:02:43;;;;;;;8.32;7.53;;;;;;;;;;5078173;28;20028;-73
2022/06/02 04:05:13;;;;;;;7.95;7.00;;;;;;;;;;5048776;28;20044;-72
2022/06/02 04:07:42;;;;;;;8.50;7.32;;;;;;;;;;5073074;28;20059;-72
2022/06/02 04:10:28;;;;;;;8.60;7.72;;;;;;;;;;5062136;28;20102;-72
2022/06/02 04:15:55;;;;;;;9.63;7.82;;;;;;;;;;5069067;28;20067;-72
2022/06/02 04:18:21;;;;;;;8.65;7.75;;;;;;;;;;5072080;28;20028;-72
2022/06/02 04:21:06;;;;;;;12.05;8.93;;;;;;;;;;5064094;28;20056;-74
2022/06/02 04:23:49;;;;;;;14.30;10.35;;;;;;;;;;5069579;28;20032;-73
2022/06/02 04:26:41;;;;;;;13.65;10.13;;;;;;;;;;5065647;28;20425;-73
2022/06/02 04:29:13;;;;;;;17.42;8.55;;;;;;;;;;5060397;28;20476;-74
2022/06/02 04:31:58;;;;;;;11.27;9.00;;;;;;;;;;5080636;28;20024;-74
2022/06/02 04:34:30;;;;;;;18.23;12.05;;;;;;;;;;5060623;28;20078;-75
2022/06/02 04:37:02;;;;;;;13.15;8.75;;;;;;;;;;5063022;28;20133;-72
2022/06/02 04:39:33;;;;;;;10.40;9.15;;;;;;;;;;5050278;28;20035;-75
2022/06/02 04:42:08;;;;;;;9.02;7.95;;;;;;;;;;5069016;28;20036;-75
2022/06/02 04:44:39;;;;;;;9.85;7.70;;;;;;;;;;5070673;28;20544;-74
2022/06/02 04:47:24;;;;;;;10.65;7.78;;;;;;;;;;5056692;28;20043;-74
2022/06/02 04:50:07;;;;;;;10.15;8.32;;;;;;;;;;5054831;28;20089;-74
2022/06/02 04:52:48;;;;;;;9.17;7.47;;;;;;;;;;5059678;28;20040;-73
2022/06/02 04:55:26;;;;;;;10.43;8.25;;;;;;;;;;5059543;28;20297;-73
2022/06/02 04:57:52;;;;;;;14.32;9.23;;;;;;;;;;5063784;28;20025;-72
2022/06/02 05:00:21;;;;;;;15.98;7.88;;;;;;;;;;5065836;28;20047;-73
2022/06/02 05:03:06;;;;;;;21.38;9.18;;;;;;;;;;5061584;28;20074;-73
2022/06/02 05:05:39;;;;;;;11.95;7.75;;;;;;;;;;5071417;28;20048;-73
2022/06/02 05:08:05;;;;;;;10.80;7.82;;;;;;;;;;5071912;28;20108;-74
2022/06/02 05:10:34;;;;;;;11.07;7.20;;;;;;;;;;5089255;28;20032;-74
2022/06/02 05:13:00;;;;;;;9.30;7.25;;;;;;;;;;5068163;28;20384;-73
2022/06/02 05:15:44;;;;;;;7.43;6.72;;;;;;;;;;5060460;28;20016;-73
2022/06/02 05:18:17;;;;;;;11.27;7.53;;;;;;;;;;5058849;28;20465;-74
2022/06/02 05:20:49;;;;;;;8.73;6.53;;;;;;;;;;5058645;28;20472;-74
2022/06/02 05:23:27;;;;;;;8.10;7.30;;;;;;;;;;5069577;28;20067;-73
2022/06/02 05:26:01;;;;;;;8.93;7.30;;;;;;;;;;5065543;28;20535;-73
2022/06/02 05:28:45;;;;;;;10.73;8.20;;;;;;;;;;5070186;28;20025;-74
2022/06/02 05:31:11;;;;;;;11.10;7.32;;;;;;;;;;5064480;28;20180;-73
2022/06/02 05:33:40;;;;;;;10.30;7.43;;;;;;;;;;5070451;28;20017;-72
2022/06/02 05:36:12;;;;;;;7.22;6.53;;;;;;;;;;5071801;28;20060;-72
2022/06/02 05:38:47;;;;;;;8.70;7.10;;;;;;;;;;5058113;28;20103;-73
2022/06/02 05:41:42;;;;;;;10.65;6.93;;;;;;;;;;5067502;28;20056;-72
2022/06/02 05:44:14;;;;;;;12.90;6.35;;;;;;;;;;5056229;28;20120;-72
2022/06/02 05:46:59;;;;;;;9.70;6.87;;;;;;;;;;5071001;28;20032;-71
2022/06/02 05:49:49;;;;;;;7.63;6.18;;;10.10;99.90;;;;;;5076520;28;20777;-72
2022/06/02 05:52:22;;;;;;;24.98;15.73;;;;;;;;;;5062171;28;20029;-73
2022/06/02 05:55:05;;;;;;;24.88;14.77;;;;;;;;;;5060672;28;20025;-73
2022/06/02 05:57:43;;;;;;;10.27;6.35;;;;;;;;;;5069008;28;20543;-72
2022/06/02 06:00:12;;;;;;;7.93;5.50;;;;;;;;;;5054928;28;20037;-73
2022/06/02 06:02:58;;;;;;;6.32;5.45;;;;;;;;;;5073945;28;20397;-74
2022/06/02 06:05:32;;;;;;;7.47;4.75;;;;;;;;;;5063071;28;20025;-73
2022/06/02 06:08:18;;;;;;;5.20;4.70;;;;;;;;;;5070180;28;20071;-74
2022/06/02 06:10:53;;;;;;;5.70;3.75;;;;;;;;;;5054833;28;20060;-74
2022/06/02 06:13:25;;;;;;;6.57;3.63;;;;;;;;;;5059685;28;20083;-73
2022/06/02 06:15:51;;;;;;;;;;;;;;;;;;5060659;28;20562;-73
2022/06/02 06:18:23;;;;;;;4.13;3.35;;;;;;;;;;5037395;28;19924;-73
2022/06/02 06:21:13;;;;;;;5.63;3.55;;;12.00;99.90;;;;;;5053597;28;20472;-73
2022/06/02 06:23:54;;;;;;;3.08;2.65;;;;;;;;;;5080472;28;20034;-73
2022/06/02 06:26:20;;;;;;;2.08;1.77;;;;;;;;;;5044020;28;20040;-73
2022/06/02 06:29:05;;;;;;;8.90;6.15;;;;;;;;;;5071300;28;20028;-75
2022/06/02 06:31:50;;;;;;;3.67;2.03;;;;;;;;;;5071329;28;20373;-75
2022/06/02 06:34:25;;;;;;;6.78;1.95;;;;;;;;;;5068072;28;20033;-74
2022/06/02 06:37:03;;;;;;;2.58;1.20;;;;;;;;;;5057756;28;20093;-74
2022/06/02 06:39:48;;;;;;;1.60;1.35;;;;;;;;;;5063015;28;20032;-73
2022/06/02 06:42:35;;;;;;;1.77;1.05;;;;;;;;;;5064198;28;20376;-73
2022/06/02 06:45:10;;;;;;;4.57;1.48;;;;;;;;;;5066220;28;20418;-73
2022/06/02 06:47:44;;;;;;;3.70;1.00;;;;;;;;;;5064832;28;20056;-74
2022/06/02 06:50:33;;;;;;;2.55;1.00;;;;;;;;;;5061965;28;20024;-74
2022/06/02 06:53:09;;;;;;;2.90;1.20;;;;;;;;;;5064932;28;20063;-73
2022/06/02 06:56:19;;;;;;;3.10;1.20;;;14.70;99.90;;;;;;5059865;28;20080;-73
2022/06/02 06:59:03;;;;;;;2.65;1.10;;;;;;;;;;5049067;28;20041;-73
2022/06/02 07:01:44;;;;;;;1.98;1.10;;;;;;;;;;5053551;28;20399;-74
2022/06/02 07:04:29;;;;;;;2.72;1.02;;;;;;;;;;5060360;28;20079;-73
2022/06/02 07:06:57;;;;;;;7.00;1.10;;;;;;;;;;5068152;28;20037;-74
2022/06/02 07:09:26;;;;;;;1.65;0.90;;;;;;;;;;5068112;28;20472;-73
2022/06/02 07:15:11;;;;;;;2.90;0.85;;;;;;;;;;5044404;28;20033;-74
2022/06/02 07:17:49;;;;;;;4.65;1.10;;;;;;;;;;5019471;28;20048;-74
2022/06/02 07:20:32;;;;;;;3.33;0.93;;;;;;;;;;5063993;28;20033;-74
2022/06/02 07:23:07;;;;;;;1.02;0.60;;;;;;;;;;5065068;28;20035;-78
2022/06/02 07:25:49;;;;;;;6.38;1.30;;;;;;;;;;5072480;28;20032;-75
2022/06/02 07:28:23;;;;;;;2.45;1.10;;;;;;;;;;5075921;28;20194;-75
2022/06/02 07:30:53;;;;;;;1.40;0.60;;;;;;;;;;5072837;28;20029;-77
2022/06/02 07:34:02;;;;;;;2.83;0.60;;;19.20;99.90;;;;;;5073576;28;20029;-75
2022/06/02 07:36:40;;;;;;;2.95;0.50;;;;;;;;;;5067854;28;20036;-75
2022/06/02 07:39:25;;;;;;;2.55;0.80;;;17.60;99.90;;;;;;5073643;28;20032;-75
2022/06/02 07:41:51;;;;;;;2.85;0.90;;;;;;;;;;5050329;28;20089;-75
2022/06/02 07:44:24;;;;;;;4.68;0.80;;;;;;;;;;5062714;28;20024;-75
2022/06/02 07:47:08;;;;;;;1.25;0.60;;;20.10;99.90;;;;;;5071222;28;20041;-75
2022/06/02 07:49:46;;;;;;;2.50;0.70;;;;;;;;;;5050546;28;20090;-75
2022/06/02 07:52:18;;;;;;;1.33;0.60;;;;;;;;;;5062412;28;20024;-76
2022/06/02 07:54:43;;;;;;;;;;;;;;;;;;5092684;28;20378;-76
2022/06/02 07:57:18;;;;;;;3.42;1.17;;;;;;;;;;5059237;28;19919;-75
2022/06/02 07:59:50;;;;;;;2.05;0.60;;;;;;;;;;5068371;28;20024;-76
2022/06/02 08:02:28;;;;;;;1.58;0.50;;;;;;;;;;5055310;28;20476;-76
2022/06/02 08:05:22;;;;;;;1.40;0.70;;;21.70;96.70;;;;;;5047054;28;20154;-76
2022/06/02 08:07:51;;;;;;;5.20;0.60;;;;;;;;;;5060297;28;20036;-75
2022/06/02 08:10:20;;;;;;;2.47;0.63;;;;;;;;;;5050587;28;20045;-76
2022/06/02 08:12:53;;;;;;;2.85;0.80;;;;;;;;;;5053682;28;20119;-76
2022/06/02 08:15:47;;;;;;;9.70;1.65;;;22.20;95.30;;;;;;5035477;28;20080;-75
2022/06/02 08:18:13;;;;;;;1.67;0.60;;;;;;;;;;5045753;28;20036;-76
2022/06/02 08:20:59;;;;;;;3.15;1.10;;;;;;;;;;5040856;28;20033;-75
2022/06/02 08:23:25;;;;;;;2.33;1.30;;;;;;;;;;5037426;28;20428;-72
2022/06/02 08:26:16;;;;;;;5.57;1.75;;;21.40;98.60;;;;;;5036524;28;20033;-73
2022/06/02 08:29:00;;;;;;;2.53;1.38;;;;;;;;;;5039965;28;20032;-72
2022/06/02 08:31:32;;;;;;;1.88;1.00;;;;;;;;;;5048406;28;20365;-73
2022/06/02 08:33:58;;;;;;;;;;;22.10;96.20;;;;;;5057207;28;20057;-78
2022/06/02 08:36:29;;;;;;;2.20;0.80;;;;;;;;;;5045886;28;20507;-76
2022/06/02 08:39:10;;;;;;;2.22;0.60;;;;;;;;;;5035433;28;20041;-76
2022/06/02 08:41:57;;;;;;;5.50;1.05;;;20.50;98.40;;;;;;5043904;28;20075;-76
2022/06/02 08:44:28;;;;;;;3.08;0.77;;;;;;;;;;5051420;28;20067;-76
2022/06/02 08:47:03;;;;;;;2.67;1.02;;;;;;;;;;5051804;28;20489;-76
2022/06/02 08:49:29;;;;;;;1.65;0.70;;;;;;;;;;5055541;28;20064;-76
2022/06/02 08:51:58;;;;;;;1.67;0.80;;;;;;;;;;5046808;28;20103;-76
2022/06/02 08:54:37;;;;;;;3.83;0.85;;;;;;;;;;5040307;28;20397;-77
2022/06/02 08:57:03;;;;;;;1.35;0.65;;;;;;;;;;5040695;28;20029;-76
2022/06/02 08:59:38;;;;;;;4.78;1.25;;;21.00;97.90;;;;;;5038092;28;20086;-74
2022/06/02 09:02:23;;;;;;;2.85;0.85;;;;;;;;;;5047493;28;20024;-75
2022/06/02 09:04:55;;;;;;;1.02;0.60;;;;;;;;;;5048829;28;20473;-77
2022/06/02 09:07:38;;;;;;;2.20;0.70;;;21.40;97.50;;;;;;5048381;28;20040;-76
2022/06/02 09:10:10;;;;;;;2.80;0.63;;;;;;;;;;5070561;28;20040;-76
2022/06/02 09:12:54;;;;;;;2.67;0.88;;;;;;;;;;5090462;28;20028;-76
2022/06/02 09:15:39;;;;;;;3.10;0.75;;;;;;;;;;5064268;28;20040;-76
2022/06/02 09:18:11;;;;;;;3.10;0.77;;;;;;;;;;5066126;28;20387;-76
2022/06/02 09:20:36;;;;;;;;;;;22.30;95.30;;;;;;5074789;28;20027;-76
2022/06/02 09:23:43;;;;;;;4.38;0.77;;;22.30;96.50;;;;;;5071652;28;19908;-76
2022/06/02 09:26:46;;;;;;;1.45;0.68;;;22.70;93.70;;;;;;5065657;28;20044;-77
2022/06/02 09:29:23;;;;;;;2.10;0.75;;;;;;;;;;5059971;28;20044;-77
2022/06/02 09:31:49;;;;;;;3.17;1.10;;;;;;;;;;5074649;28;20032;-75
2022/06/02 09:34:18;;;;;;;1.30;0.68;;;;;;;;;;5074461;28;20024;-73
2022/06/02 09:36:44;;;;;;;2.72;0.82;;;;;;;;;;5045710;28;20131;-74
2022/06/02 09:39:16;;;;;;;5.10;0.70;;;20.20;96.70;;;;;;5062545;28;20025;-74
2022/06/02 09:42:00;;;;;;;7.22;0.88;;;;;;;;;;5065888;28;20460;-74
2022/06/02 09:44:35;;;;;;;3.63;0.90;;;;;;;;;;5066481;28;20025;-75
2022/06/02 09:47:08;;;;;;;1.73;0.70;;;;;;;;;;5065839;28;20033;-75
2022/06/02 09:49:41;;;;;;;1.65;1.10;;;;;;;;;;5074104;28;20028;-74
2022/06/02 09:52:23;;;;;;;3.42;0.80;;;;;;;;;;5070205;28;20437;-75
2022/06/02 09:55:09;;;;;;;1.20;0.68;;;;;;;;;;5062253;28;20039;-74
2022/06/02 10:00:23;;;;;;;4.45;0.90;;;;;;;;;;5057967;28;20028;-74
2022/06/02 10:03:10;;;;;;;2.88;0.80;;;20.90;98.80;;;;;;5070313;28;20016;-73
2022/06/02 10:06:03;;;;;;;4.38;0.82;;;;;;;;;;5077199;28;20029;-74
2022/06/02 10:08:31;;;;;;;2.58;0.52;;;;;;;;;;5068264;28;20083;-74
2022/06/02 10:11:04;;;;;;;3.80;0.90;;;21.90;96.50;;;;;;5072240;28;20621;-73
2022/06/02 10:14:02;;;;;;;1.98;0.68;;;21.70;96.10;;;;;;5072373;28;20012;-72
2022/06/02 10:16:53;;;;;;;1.73;0.68;;;21.40;94.80;;;;;;5068106;28;20024;-72
2022/06/02 10:19:46;;;;;;;4.20;0.80;;;21.10;95.50;;;;;;5082319;28;20029;-72
2022/06/02 10:22:12;;;;;;;3.65;1.02;;;;;;;;;;5069837;28;20020;-73
2022/06/02 10:24:41;;;;;;;4.32;1.60;;;;;;;;;;5056726;28;20453;-73
2022/06/02 10:27:22;;;;;;;5.38;1.75;;;20.90;96.40;;;;;;5086270;28;20181;-73
2022/06/02 10:29:56;;;;;;;2.70;0.77;;;;;;;;;;5071403;28;20457;-72
2022/06/02 10:32:41;;;;;;;1.55;0.63;;;;;;;;;;5068840;28;20105;-73
2022/06/02 10:35:44;;;;;;;4.13;0.70;;;21.40;94.90;;;;;;5060667;28;20448;-77
2022/06/02 10:38:29;;;;;;;7.05;4.40;;;21.10;97.00;;;;;;5060150;28;20048;-77
2022/06/02 10:41:06;;;;;;;2.67;1.08;;;;;;;;;;5060810;28;20032;-72
2022/06/02 10:43:35;;;;;;;2.25;0.70;;;;;;;;;;5055158;28;20048;-76
2022/06/02 10:46:19;;;;;;;2.08;0.70;;;;;;;;;;5068248;28;20043;-75
2022/06/02 10:49:08;;;;;;;3.22;0.70;;;;;;;;;;5070769;28;20530;-76
2022/06/02 10:51:34;;;;;;;3.15;0.65;;;;;;;;;;5061121;28;20028;-76
2022/06/02 10:54:00;;;;;;;2.40;0.73;;;;;;;;;;5069454;28;20097;-75
2022/06/02 10:56:41;;;;;;;1.88;0.75;;;;;;;;;;5069423;28;20029;-74
2022/06/02 10:59:07;;;;;;;23.90;15.70;;;;;;;;;;5074377;28;20127;-74
2022/06/02 11:01:47;;;;;;;3.88;1.20;;;;;;;;;;5051602;28;20112;-73
2022/06/02 11:04:32;;;;;;;5.40;0.88;;;;;;;;;;5071594;28;20036;-74
2022/06/02 11:07:04;;;;;;;1.08;0.57;;;;;;;;;;5078476;28;20068;-73
2022/06/02 11:09:49;;;;;;;1.52;1.25;;;;;;;;;;5069199;28;20052;-74
2022/06/02 11:12:22;;;;;;;3.28;0.75;;;;;;;;;;5073947;28;20037;-73
2022/06/02 11:14:51;;;;;;;3.40;0.70;;;;;;;;;;5066054;28;20059;-72
2022/06/02 11:17:24;;;;;;;3.10;1.15;;;;;;;;;;5065568;28;20114;-72
2022/06/02 11:19:56;;;;;;;1.35;0.70;;;;;;;;;;5055295;28;20033;-73
2022/06/02 11:22:22;;;;;;;;;;;;;;;;;;5076370;28;20032;-74
2022/06/02 11:24:51;;;;;;;2.15;0.93;;;;;;;;;;5082474;28;19968;-74
2022/06/02 11:27:21;;;;;;;4.22;1.05;;;;;;;;;;5070226;28;20313;-77
2022/06/02 11:30:05;;;;;;;3.22;0.77;;;;;;;;;;5065949;28;20032;-73
2022/06/02 11:32:49;;;;;;;1.83;0.80;;;;;;;;;;5065705;28;20036;-72
2022/06/02 11:35:34;;;;;;;2.67;0.70;;;;;;;;;;5065430;28;20021;-73
2022/06/02 11:38:09;;;;;;;1.75;0.70;;;;;;;;;;5065916;28;20029;-72
2022/06/02 11:40:39;;;;;;;1.13;0.73;;;;;;;;;;5058868;28;20496;-73
2022/06/02 11:43:24;;;;;;;1.85;0.80;;;;;;;;;;5054601;28;20484;-73
2022/06/02 11:46:22;;;;;;;3.33;0.80;;;20.50;97.40;;;;;;5075587;28;20130;-73
2022/06/02 11:49:01;;;;;;;4.90;0.65;;;;;;;;;;5064798;28;20056;-73
2022/06/02 11:51:30;;;;;;;1.42;0.80;;;;;;;;;;5059912;28;20124;-73
2022/06/02 11:54:15;;;;;;;3.50;0.70;;;;;;;;;;5069946;28;20032;-73
2022/06/02 11:57:14;;;;;;;3.33;0.68;;;21.10;97.80;;;;;;5068785;28;20040;-73
2022/06/02 12:00:18;;;;;;;4.35;0.75;;;21.30;97.60;;;;;;5062761;28;20104;-73
2022/06/02 12:03:12;;;;;;;1.70;0.95;;;21.30;95.50;;;;;;5064836;28;20032;-73
2022/06/02 12:05:38;;;;;;;1.15;0.70;;;;;;;;;;5067440;28;20032;-73
2022/06/02 12:08:25;;;;;;;1.17;0.63;;;;;;;;;;5068370;28;20357;-73
2022/06/02 12:11:23;;;;;;;1.40;0.60;;;20.80;97.70;;;;;;5065170;28;20445;-73
2022/06/02 12:13:55;;;;;;;2.30;0.80;;;;;;;;;;5068883;28;20111;-73
2022/06/02 12:16:40;;;;;;;3.42;0.93;;;20.20;96.30;;;;;;5071578;28;20031;-72
2022/06/02 12:19:12;;;;;;;10.35;0.77;;;;;;;;;;5067492;28;20063;-72
2022/06/02 12:22:00;;;;;;;3.90;0.90;;;20.50;99.30;;;;;;5049081;28;20025;-73
2022/06/02 12:24:29;;;;;;;2.10;0.82;;;;;;;;;;5061008;28;20024;-74
2022/06/02 12:27:01;;;;;;;2.47;0.70;;;;;;;;;;5061851;28;20040;-73
2022/06/02 12:29:27;;;;;;;;;;;;;;;;;;5060332;28;20021;-73
2022/06/02 12:31:53;;;;;;;1.85;0.88;;;;;;;;;;5061879;28;19908;-73
2022/06/02 12:34:34;;;;;;;1.67;0.85;;;;;;;;;;5063837;28;20033;-73
2022/06/02 12:37:06;;;;;;;2.25;0.63;;;;;;;;;;5051054;28;20039;-73
2022/06/02 12:39:39;;;;;;;5.85;0.70;;;;;;;;;;5065203;28;20036;-73
2022/06/02 12:42:05;;;;;;;;;;;;;;;;;;5055861;28;20031;-73
2022/06/02 12:45:01;;;;;;;1.20;0.50;;;23.50;91.60;;;;;;5069676;28;20823;-74
2022/06/02 12:47:45;;;;;;;3.50;0.57;;;23.20;91.70;;;;;;5061354;28;20135;-73
2022/06/02 12:50:30;;;;;;;3.63;0.60;;;;;;;;;;5055638;28;20025;-73
2022/06/02 12:52:56;;;;;;;2.20;0.80;;;;;;;;;;5062274;28;20530;-73
2022/06/02 12:55:45;;;;;;;1.83;0.57;;;;;;;;;;5066713;28;20021;-73
2022/06/02 12:58:29;;;;;;;2.63;0.70;;;;;;;;;;5013347;28;20040;-73
2022/06/02 13:01:02;;;;;;;3.15;0.80;;;23.30;93.40;;;;;;5059248;28;20082;-73
2022/06/02 13:03:55;;;;;;;2.28;0.63;;;23.10;91.70;;;;;;5064327;28;20031;-73
2022/06/02 13:06:57;;;;;;;2.28;0.52;;;22.50;91.80;;;;;;5056825;28;20056;-73
2022/06/02 13:09:23;;;;;;;;;;;22.20;94.70;;;;;;5067330;28;20044;-73
2022/06/02 13:12:13;;;;;;;1.20;0.50;;;22.10;93.10;;;;;;5070475;28;19915;-73
2022/06/02 13:14:42;;;;;;;2.80;1.13;;;;;;;;;;5056266;28;20064;-73
2022/06/02 13:17:08;;;;;;;4.32;0.88;;;;;;;;;;5054153;28;20021;-73
2022/06/02 13:19:34;;;;;;;1.10;0.40;;;;;;;;;;5055834;28;20104;-73
2022/06/02 13:22:10;;;;;;;1.60;0.80;;;;;;;;;;5058889;28;20030;-72
2022/06/02 13:24:56;;;;;;;3.42;0.63;;;;;;;;;;5049842;28;20028;-76
2022/06/02 13:27:43;;;;;;;2.47;0.55;;;22.40;92.90;;;;;;5081745;28;20511;-74
2022/06/02 13:30:21;;;;;;;2.13;0.95;;;;;;;;;;5058187;28;20056;-74
2022/06/02 13:33:06;;;;;;;1.95;0.60;;;;;;;;;;5055655;28;20048;-74
2022/06/02 13:36:01;;;;;;;1.33;0.50;;;;;;;;;;5064099;28;20143;-73
2022/06/02 13:38:36;;;;;;;2.17;0.60;;;;;;;;;;5041635;28;20876;-73
2022/06/02 13:41:21;;;;;;;4.13;0.60;;;;;;;;;;5069873;28;20065;-74
2022/06/02 13:44:06;;;;;;;1.83;0.73;;;;;;;;;;5065913;28;20029;-73
2022/06/02 13:46:59;;;;;;;1.85;0.65;;;22.30;92.80;;;;;;5065111;28;20067;-74
2022/06/02 13:49:37;;;;;;;2.63;1.30;;;;;;;;;;5056306;28;20055;-73
2022/06/02 13:52:15;;;;;;;3.13;0.70;;;;;;;;;;5055974;28;20112;-73
2022/06/02 13:58:16;;;;;;;1.83;0.70;;;22.20;92.30;;;;;;5055803;28;20043;-74
2022/06/02 14:01:00;;;;;;;1.98;0.57;;;;;;;;;;5065790;28;20036;-74
2022/06/02 14:04:05;;;;;;;2.08;0.63;;;22.20;93.90;;;;;;5053586;28;20373;-74
2022/06/02 14:06:34;;;;;;;4.22;0.80;;;;;;;;;;5024064;28;20485;-74
2022/06/02 14:09:13;;;;;;;2.25;0.60;;;;;;;;;;5069731;28;20053;-74
2022/06/02 14:11:53;;;;;;;2.60;0.60;;;;;;;;;;5075831;28;20498;-75
2022/06/02 14:14:34;;;;;;;2.50;0.60;;;22.10;93.10;;;;;;5064132;28;20032;-73
2022/06/02 14:17:00;;;;;;;2.45;0.55;;;;;;;;;;5063336;28;20043;-73
2022/06/02 14:19:32;;;;;;;3.15;0.57;;;;;;;;;;5074522;28;20021;-73
2022/06/02 14:22:18;;;;;;;1.95;1.00;;;;;;;;;;5070164;28;20024;-73
2022/06/02 14:24:52;;;;;;;2.80;1.23;;;;;;;;;;5073256;28;20499;-73
2022/06/02 14:27:41;;;;;;;3.80;0.93;;;21.40;93.70;;;;;;5053865;28;20120;-74
2022/06/02 14:30:15;;;;;;;3.25;0.90;;;;;;;;;;5062993;28;20055;-73
2022/06/02 14:32:41;;;;;;;1.88;0.80;;;;;;;;;;5068915;28;20104;-73
2022/06/02 14:35:25;;;;;;;1.48;0.63;;;;;;;;;;5059387;28;20111;-73
2022/06/02 14:37:51;;;;;;;2.80;0.90;;;;;;;;;;5054704;28;20476;-73
2022/06/02 14:40:27;;;;;;;2.83;0.88;;;;;;;;;;5069206;28;20116;-73
2022/06/02 14:43:09;;;;;;;2.30;0.73;;;;;;;;;;5070308;28;20476;-73
2022/06/02 14:46:06;;;;;;;5.22;0.85;;;20.80;94.50;;;;;;5061360;28;22042;-73
2022/06/02 14:48:33;;;;;;;2.58;0.93;;;;;;;;;;5055642;28;20115;-74
2022/06/02 14:51:11;;;;;;;1.98;0.60;;;;;;;;;;5053655;28;20028;-74
2022/06/02 14:54:00;;;;;;;5.47;0.80;;;;;;;;;;5054408;28;20021;-73
2022/06/02 14:56:32;;;;;;;2.17;1.02;;;;;;;;;;5066366;28;20677;-73
2022/06/02 14:59:21;;;;;;;;;;;20.70;96.90;;;;;;5064086;28;20029;-73
2022/06/02 15:02:06;;;;;;;1.35;0.60;;;;;;;;;;5058994;28;19912;-73
2022/06/02 15:04:32;;;;;;;2.05;0.75;;;;;;;;;;5055002;28;20028;-73
2022/06/02 15:07:17;;;;;;;2.65;0.60;;;21.00;94.70;;;;;;5056402;28;20083;-74
2022/06/02 15:09:49;;;;;;;4.10;1.02;;;;;;;;;;5072349;28;20388;-72
2022/06/02 15:12:15;;;;;;;3.08;0.73;;;;;;;;;;5070696;28;20440;-72
2022/06/02 15:14:44;;;;;;;1.83;0.70;;;;;;;;;;5059365;28;20135;-71
2022/06/02 15:17:16;;;;;;;2.03;1.00;;;;;;;;;;5063544;28;20523;-71
2022/06/02 15:20:01;;;;;;;1.42;0.70;;;;;;;;;;5062860;28;20357;-71
2022/06/02 15:23:00;;;;;;;1.92;0.68;;;22.20;93.40;;;;;;5069112;28;20029;-71
2022/06/02 15:25:26;;;;;;;2.22;0.60;;;;;;;;;;5066591;28;20025;-71
2022/06/02 15:28:13;;;;;;;1.38;0.52;;;22.70;92.90;;;;;;5052125;28;20499;-72
2022/06/02 15:30:58;;;;;;;3.25;1.88;;;;;;;;;;5051802;28;20431;-71
2022/06/02 15:33:46;;;;;;;21.48;15.75;;;22.90;94.20;;;;;;5059044;28;20104;-71
2022/06/02 15:36:24;;;;;;;2.72;1.20;;;;;;;;;;5061016;28;20399;-72
2022/06/02 15:38:56;;;;;;;2.17;1.17;;;;;;;;;;5061979;28;20084;-72
2022/06/02 15:41:22;;;;;;;1.30;0.82;;;;;;;;;;5059687;28;20078;-72
2022/06/02 15:43:48;;;;;;;4.82;0.90;;;;;;;;;;5064152;28;20032;-72